KROA

Roanoke-Blacksburg Regional / Woodrum Field Airport

Roanoke, Virginia, USA
METAR KROA 161854Z 28014KT 10SM SCT031 05/M02 A3018 RMK AO2 SLP228 T00501022
Observed Flight Rules
Jan-16 @ 18:54 UTC (34 minutes ago) Visual Flight Rules
Wind Visibility Clouds
280° at 14 knots 10 miles
  • Scattered at 3,100' AGL
Temperatures Readings
Current 5°C / 41°F
Dewpoint -2°C / 28°F
Humidity 61%
Altimeter 30.18" Hg
Pressure 1022.8 hPa
Elevation 362
METAR KROA 161854Z 28014KT 10SM SCT031 05/M02 A3018 RMK AO2 SLP228 T00501022
Observed Flight Rules
Jan-16 @ 18:54 UTC
(34 minutes ago)
VFR
Wind Visibility
280° at 14 knots 10 miles
Clouds
  • Scattered at 3,100' AGL
Temperature Dewpoint
5°C / 41°F -2°C / 28°F
Humidity Altimeter Pressure
61% 30.18" Hg 1022.8 hPa